Denson Spring, Texas
Current Conditions -  °F | °C
As of 2:35 PM on Thursday 23 Oct 2014 (Local Time) from KDKR Reporting Station
Few Clouds Few Clouds  
Wind Chill: 75°   Ceiling: Unl
Heat Index: 75°   Visibility: 10mi
Dew Point: 57°   Wind: 6mph
Humidity: 53%   Direction: 60°ENE
Pressure: 30.14"   Gusts: NA
Location:  31.4982°N, 95.4177°W
Report Text: KDKR 231935Z AUTO 06005KT 10SM FEW045 24/14 A3014 RMK AO2
Loading
Personal Weather Stations






























Interactive Weather Map
Tropical Storm Tracking
New forecast layout! Learn more

10-Day Weather Forecast

Advertisements
Track Severe Weather on mobile